Flight Track Log - Related Links

Times and Time Zones

All times are in EDT time to prevent confusion due to time zone crossing. See the N507PD flight status page for this flight to view local times or setup timezone preferences in your user account.

Time Position Orientation Groundspeed Altitude Reporting Facility
EDT Latitude Longitude Course Direction KTS MPH feet Rate Location/Type
Fri 10:43:23 PM 38.5500 -90.1167 36° Northeast 209 241 2,100  Level Gateway (St. Louis) TRACON
Fri 10:44:20 PM 38.6069 -90.0633 36° Northeast 259 298 4,600 3,128 Climbing Kansas City Center
Fri 10:45:20 PM 38.6819 -90.0408 13° North 270 311 8,200 3,610 Climbing Kansas City Center
Fri 10:46:23 PM 38.7564 -90.0189 13° North 276 318 12,000 3,268 Climbing Kansas City Center
Fri 10:47:23 PM 38.8322 -89.9961 13° North 280 322 14,900 2,579 Climbing Kansas City Center
Fri 10:48:24 PM 38.9231 -89.9667 14° North 302 348 17,200 2,164 Climbing Kansas City Center
Fri 10:49:25 PM 39.0119 -89.9411 13° North 325 374 19,300 2,262 Climbing Kansas City Center
Fri 10:50:26 PM 39.0939 -89.8953 23° Northeast 321 369 21,800 1,850 Climbing Kansas City Center
Fri 10:51:25 PM 39.1753 -89.8408 27° Northeast 328 377 23,000 836 Climbing Kansas City Center
Fri 10:52:28 PM 39.2583 -89.7847 28° Northeast 371 427 23,500 732 Climbing Kansas City Center
Fri 10:53:28 PM 39.3569 -89.7197 27° Northeast 393 452 24,500 950 Climbing Kansas City Center
Fri 10:54:28 PM 39.4592 -89.6528 27° Northeast 407 468 25,400 1,024 Climbing Kansas City Center
Fri 10:55:31 PM 39.5853 -89.5686 27° Northeast 423 487 26,600 793 Climbing Kansas City Center
Fri 10:56:29 PM 39.6917 -89.4969 27° Northeast 430 495 27,000 197 Climbing Kansas City Center
Fri 10:57:33 PM 39.7900 -89.4325 27° Northeast 444 511 27,000  Level Kansas City Center
Fri 10:58:33 PM 39.9008 -89.3589 27° Northeast 448 516 27,000 -248 Level Kansas City Center
Fri 10:59:34 PM 40.0367 -89.2767 25° Northeast 450 518 26,500 -689 Descending Kansas City Center
Fri 11:00:35 PM 40.1478 -89.2069 26° Northeast 447 514 25,600 -750 Descending Kansas City Center
Fri 11:00:54 PM 40.1681 -89.1953 24° Northeast 442 509 25,500 -975 Descending Chicago Center
Fri 11:01:55 PM 40.2969 -89.1142 26° Northeast 432 497 24,300 -1,082 Descending Chicago Center
Fri 11:02:56 PM 40.3967 -89.0519 25° Northeast 403 464 23,300 -984 Descending Chicago Center
Fri 11:03:57 PM 40.4917 -88.9928 25° Northeast 383 441 22,300 -984 Descending Chicago Center
Fri 11:04:58 PM 40.5842 -88.9344 26° Northeast 372 428 21,300 -1,033 Descending Chicago Center
Fri 11:05:59 PM 40.6781 -88.8747 26° Northeast 374 430 20,200 -1,033 Descending Chicago Center
Fri 11:07:00 PM 40.7717 -88.8156 26° Northeast 377 434 19,200 -1,279 Descending Chicago Center
Fri 11:08:01 PM 40.8639 -88.7581 25° Northeast 369 425 17,600 -1,918 Descending Chicago Center
Fri 11:09:02 PM 40.9500 -88.7014 26° Northeast 350 403 15,300 -2,311 Descending Chicago Center
Fri 11:10:03 PM 41.0342 -88.6472 26° Northeast 340 391 12,900 -2,213 Descending Chicago Center
Fri 11:11:04 PM 41.1161 -88.5956 25° Northeast 331 381 10,800 -2,262 Descending Chicago Center
Fri 11:12:05 PM 41.2025 -88.5397 26° Northeast 296 341 8,300 -2,380 Descending Chicago Center
Fri 11:13:05 PM 41.2617 -88.4661 43° Northeast 290 334 6,000 -1,636 Descending Chicago Center
Fri 11:14:06 PM 41.3183 -88.3911 45° Northeast 288 331 5,000 -590 Descending Chicago Center
Fri 11:15:07 PM 41.3733 -88.3183 45° Northeast 281 323 4,800 -787 Descending Chicago Center
Fri 11:16:08 PM 41.4278 -88.2453 45° Northeast 278 320 3,400 -1,082 Descending Chicago Center
Fri 11:17:09 PM 41.4758 -88.1839 44° Northeast 256 295 2,600 -787 Descending Chicago Center

Login

Don't have an account? Register now (free) for customized features, flight alerts, and more!